Currently N/A°F in Perris, California, USA
N/A°F Alert
N/A°F / N/A°F
N/A
N/A
Saturday, September 26, 2020 10:58 AM PDT

Perris, California Weather Summary
Last 36 Hours

Temperature Winds Hourly Humidity Dewpoint
Time Report Norm Report Norm Max Gusts Precip. Rpt. Norm Rpt. Norm Pressure
1Mon 07:12 PM  95.1°F  70°F  calm  6 mph  8 mph  0.00"  29%  53%  56°F  51°F  29.81"
Mon 07:00 PM  95.3°F  71°F  calm  6 mph  15 mph  0.00"  28%  52%  56°F  51°F  29.80"
Mon 06:00 PM  96.9°F  73°F  4 mph N  7 mph  13 mph  0.00"  25%  46%  54°F  51°F  29.80"
Mon 05:00 PM  99.6°F  76°F  6 mph NW  7 mph  14 mph  0.00"  24%  44%  55°F  51°F  29.79"
Mon 04:00 PM  99.1°F  77°F  7 mph SW  7 mph  13 mph  0.00"  32%  42%  63°F  51°F  29.79"
Mon 03:00 PM  102.7°F  77°F  2 mph N  6 mph  11 mph  0.00"  23%  42%  57°F  51°F  29.80"
Mon 02:00 PM  104.4°F  76°F  calm  5 mph  10 mph  0.00"  20%  42%  53°F  51°F  29.82"
2Mon 01:35 PM  105.1°F  76°F  2 mph N  5 mph  9 mph  ----  15%  43%  46°F  51°F  29.83"
Mon 01:00 PM  103.6°F  75°F  1 mph N  5 mph  10 mph  0.00"  15%  44%  45°F  51°F  29.83"
Mon 12:00 PM  101.8°F  72°F  2 mph NW  4 mph  9 mph  0.00"  23%  50%  56°F  51°F  29.85"
Mon 11:00 AM  96.0°F  69°F  1 mph N  4 mph  6 mph  0.00"  34%  56%  62°F  52°F  29.87"
Mon 10:00 AM  90.1°F  65°F  calm  3 mph  6 mph  0.00"  47%  64%  67°F  53°F  29.88"
Mon 09:00 AM  83.0°F  62°F  2 mph E  3 mph  5 mph  0.00"  64%  75%  69°F  53°F  29.89"
Mon 08:00 AM  74.6°F  58°F  calm  3 mph  5 mph  0.00"  83%  85%  69°F  53°F  29.90"
Mon 07:00 AM  68.7°F  55°F  1 mph E  2 mph  3 mph  0.00"  91%  90%  66°F  52°F  29.89"
3Mon 06:33 AM  67.2°F  54°F  calm  2 mph  none  ----  91%  90%  65°F  51°F  29.89"
Mon 06:00 AM  68.0°F  54°F  calm  2 mph  4 mph  0.00"  91%  90%  65°F  51°F  29.88"
Mon 05:00 AM  70.3°F  55°F  1 mph E  2 mph  4 mph  0.00"  90%  89%  67°F  52°F  29.87"
Mon 04:00 AM  70.0°F  55°F  calm  2 mph  8 mph  0.00"  88%  88%  66°F  52°F  29.85"
Mon 03:00 AM  70.6°F  56°F  calm  2 mph  2 mph  0.00"  86%  87%  66°F  52°F  29.85"
Mon 02:00 AM  73.5°F  57°F  calm  2 mph  4 mph  0.00"  80%  85%  67°F  52°F  29.86"
Mon 01:00 AM  73.6°F  57°F  calm  3 mph  2 mph  0.00"  79%  84%  66°F  52°F  29.88"
Mon 12:00 AM  74.2°F  58°F  calm  3 mph  none  0.00"  79%  82%  67°F  52°F  29.87"
Sun 11:00 PM  75.8°F  59°F  calm  3 mph  6 mph  0.00"  76%  79%  67°F  53°F  29.87"
Sun 10:00 PM  77.0°F  61°F  calm  4 mph  6 mph  0.00"  73%  75%  68°F  53°F  29.87"
Sun 09:00 PM  79.7°F  63°F  calm  4 mph  9 mph  0.00"  67%  69%  68°F  53°F  29.86"
Sun 08:00 PM  82.8°F  66°F  calm  5 mph  10 mph  0.00"  60%  61%  67°F  51°F  29.84"
Sun 07:00 PM  86.6°F  70°F  4 mph S  6 mph  10 mph  0.00"  49%  52%  65°F  51°F  29.81"
Sun 06:00 PM  90.4°F  73°F  4 mph W  7 mph  13 mph  0.09"  42%  47%  64°F  51°F  29.80"
Sun 05:00 PM  93.8°F  75°F  1 mph N  7 mph  none  0.00"  38%  44%  63°F  51°F  29.80"
Sun 04:58 PM  93.3°F  75°F  calm  7 mph  10 mph  0.00"  35%  44%  61°F  51°F  29.80"
Sun 03:00 PM  98.1°F  76°F  5 mph SW  6 mph  9 mph  0.00"  24%  42%  54°F  51°F  29.81"
Sun 02:00 PM  97.4°F  75°F  calm  5 mph  9 mph  0.01"  26%  43%  55°F  51°F  29.83"
Sun 01:34 PM  134.3°F  75°F  2 mph N  5 mph  9 mph  0.00"  27%  44%  88°F  51°F  29.85"
Sun 12:00 PM  129.7°F  71°F  1 mph E  4 mph  10 mph  0.00"  40%  50%  98°F  51°F  29.90"
Sun 11:00 AM  123.7°F  68°F  calm  4 mph  10 mph  0.00"  56%  57%  103°F  52°F  29.91"
Sun 10:00 AM  119.2°F  65°F  1 mph N  3 mph  5 mph  0.00"  66%  65%  104°F  52°F  29.93"
Sun 09:00 AM  114.6°F  61°F  calm  3 mph  4 mph  0.00"  82%  75%  108°F  53°F  29.94"
Sun 08:00 AM  109.2°F  58°F  calm  3 mph  none  0.00"  95%  84%  108°F  53°F  29.93"

  1. Current weather data. No green row appears if the current weather data is also the high or low for the current day.
  2. High temperature for the current day.
  3. Low temperature for the current day.

The Perris, California weather pages are a service of WeatherCurrents. Perris is located in Southern California's Inland Empire, south of Riverside and north of Sun City, along the Interstate 215 freeway.
Copyright ©2020  WeatherCurrents. All rights reserved. - Submit questions and comments - Privacy Policy

This page automatically refreshes every 10 minutes.